Lincoln Airport
KLNK : now visible

Airfield :











YOU CAN JOIN US ON...

 
LOGIN :

Register | Disclaimer

   EN    FR    IT 

 









Legend :    VFR   Marginal VFR   IFR   Intensive IFR   Very Intensive IFR
Visi :
Ceiling :
>= 8 km
>= 3000ft
5 to 8 km
1000 to 3000 ft
1500m to 5 km
500 to 1000 ft
800 to 1500m
200 to 500 ft
< 800m
< 200 ft
Symbols :   Thunderstorms  Fog  Heavy snow  Heavy precipitations  Wind > 20 kt






- Airport Elevation : 1219 ft
- IATA code : LNK


KLNK - Lincoln

CURRENT METAR :
  • 141954Z 16007KT 9SM -RA FEW039 SCT100 29/21 A2994 RMK AO2 LTG DSNT NE RAB44 SLP127 P0000 T02940211

EXPIRED METARs :
  • 141854Z 19011G19KT 9SM FEW037 32/21 A2994 RMK AO2 LTG DSNT N AND W SLP124 T03220211
  • 141754Z 21009KT 9SM BKN035 30/22 A2997 RMK AO2 SLP134 T03000217 10317 20206 53006

TAF KLNK
Valid from the 14 at 19:00 until the 15 at 18:00 UTC


141843Z 1419/1518 19012KT P6SM BKN030
FM142000 19010KT 5SM -TSRA OVC030CB
FM142100 19010KT P6SM BKN035
FM150100 21010KT P6SM VCTS BKN030CB
FM150200 33010KT P6SM -SHRA BKN030
FM150300 36006KT P6SM SCT030
FM150900 VRB04KT P6SM SKC
KZMP FIR / North America



MET'MAP, your aeronautical weather chart ! - Copyright ORBIFLY December 2007 - Disclaimer

ORBIFLY MET'MAP TEAM :

Programming & Development : Alexandra Zaïnal
Concept & original design : Baudouin d'Aumeries
Assistance for programming : Marc-Olivier Méhu
Technical & hardware support : Manuel Goepfert

Contact : metmap@orbifly.com




SOURCES & CREDITS :

   NOAA       Earth
Advisory